Biggs Field, Texas
Current Conditions -  °F | °C
As of 1:58 AM on Thursday 23 Oct 2014 (Local Time) from KBIF Reporting Station
Clear Clear  
Wind Chill: 61°   Ceiling: Unl
Heat Index: 61°   Visibility: 10mi
Dew Point: 54°   Wind: 3mph
Humidity: 80%   Direction: 130°SE
Pressure: 30.15"   Gusts: NA
Location:  31.8457°N, 106.377°W
Report Text: KBIF 230758Z AUTO 13003KT 10SM CLR 16/12 A3015 RMK AO2 SLP160 T01590124 $
Loading
Personal Weather Stations






























Interactive Weather Map
Tropical Storm Tracking
New forecast layout! Learn more

10-Day Weather Forecast

Advertisements
Track Severe Weather on mobile